createdAt,value
2024-02-29T00:00:01.265Z,96326.25
2024-02-29T00:02:28.880Z,96317.44
2024-02-29T00:05:02.441Z,96323.84
2024-02-29T00:07:30.163Z,96324.50
2024-02-29T00:09:57.704Z,96322.88
2024-02-29T00:12:25.516Z,96315.81
2024-02-29T00:14:53.187Z,96326.72
2024-02-29T00:17:21.417Z,96316.63
2024-02-29T00:19:48.884Z,96308.28
2024-02-29T00:22:16.577Z,96314.22
2024-02-29T00:24:44.315Z,96307.63
2024-02-29T00:27:12.417Z,96300.09
2024-02-29T00:29:39.922Z,96304.28
2024-02-29T00:32:09.413Z,96306.19
2024-02-29T00:34:37.024Z,96310.53
2024-02-29T00:37:04.869Z,96299.94
2024-02-29T00:39:32.517Z,96297.38
2024-02-29T00:42:00.059Z,96296.25
2024-02-29T00:44:27.683Z,96293.53
2024-02-29T00:46:55.205Z,96287.25
2024-02-29T00:49:22.807Z,96289.50
2024-02-29T00:51:50.468Z,96281.66
2024-02-29T00:54:17.940Z,96282.28
2024-02-29T00:56:45.527Z,96277.31
2024-02-29T00:59:13.037Z,96278.94
2024-02-29T01:01:40.719Z,96274.44
2024-02-29T01:04:08.366Z,96277.19
2024-02-29T01:06:35.976Z,96264.00
2024-02-29T01:09:05.590Z,96267.53
2024-02-29T01:11:34.074Z,96269.47
2024-02-29T01:14:03.927Z,96259.50
2024-02-29T01:16:31.533Z,96255.19
2024-02-29T01:18:59.384Z,96252.13
2024-02-29T01:21:27.025Z,96254.84
2024-02-29T01:23:54.486Z,96256.28
2024-02-29T01:26:22.715Z,96250.69
2024-02-29T01:28:50.249Z,96245.81
2024-02-29T01:31:18.150Z,96246.63
2024-02-29T01:33:45.704Z,96237.78
2024-02-29T01:36:13.450Z,96238.94
2024-02-29T01:38:40.979Z,96240.09
2024-02-29T01:41:08.677Z,96237.53
2024-02-29T01:43:36.467Z,96237.22
2024-02-29T01:46:15.508Z,96238.19
2024-02-29T01:48:43.573Z,96239.16
2024-02-29T01:51:11.905Z,96237.88
2024-02-29T01:53:40.174Z,96235.16
2024-02-29T01:56:08.351Z,96239.31
2024-02-29T01:58:36.957Z,96227.59
2024-02-29T02:01:05.110Z,96228.09
2024-02-29T02:03:33.144Z,96220.69
2024-02-29T02:06:00.884Z,96220.56
2024-02-29T02:08:31.412Z,96219.59
2024-02-29T02:10:59.156Z,96214.59
2024-02-29T02:13:27.061Z,96207.41
2024-02-29T02:15:54.687Z,96209.00
2024-02-29T02:18:23.561Z,96198.41
2024-02-29T02:20:51.290Z,96204.16
2024-02-29T02:23:18.737Z,96188.94
2024-02-29T02:25:46.217Z,96197.25
2024-02-29T02:28:14.309Z,96192.31
2024-02-29T02:30:42.114Z,96188.00
2024-02-29T02:33:11.432Z,96185.13
2024-02-29T02:35:39.107Z,96184.78
2024-02-29T02:38:07.006Z,96182.56
2024-02-29T02:40:36.452Z,96180.47
2024-02-29T02:43:04.816Z,96185.13
2024-02-29T02:45:32.626Z,96183.38
2024-02-29T02:48:00.478Z,96183.03
2024-02-29T02:50:28.022Z,96175.34
2024-02-29T02:52:55.672Z,96173.56
2024-02-29T02:55:23.210Z,96166.50
2024-02-29T02:57:50.883Z,96159.63
2024-02-29T03:00:18.739Z,96163.81
2024-02-29T03:02:46.377Z,96167.66
2024-02-29T03:05:14.008Z,96166.03
2024-02-29T03:07:41.711Z,96167.81
2024-02-29T03:10:12.620Z,96164.75
2024-02-29T03:12:40.301Z,96162.69
2024-02-29T03:15:08.698Z,96163.81
2024-02-29T03:17:36.337Z,96159.00
2024-02-29T03:20:07.172Z,96151.78
2024-02-29T03:22:35.193Z,96157.25
2024-02-29T03:25:02.684Z,96152.88
2024-02-29T03:27:30.334Z,96148.88
2024-02-29T03:30:00.537Z,96140.06
2024-02-29T03:32:28.464Z,96140.88
2024-02-29T03:34:55.999Z,96133.97
2024-02-29T03:37:23.829Z,96140.72
2024-02-29T03:39:51.372Z,96135.75
2024-02-29T03:42:19.053Z,96138.63
2024-02-29T03:44:47.399Z,96138.31
2024-02-29T03:47:15.128Z,96139.28
2024-02-29T03:49:42.627Z,96129.50
2024-02-29T03:52:10.355Z,96133.97
2024-02-29T03:54:38.084Z,96119.41
2024-02-29T03:57:05.720Z,96119.88
2024-02-29T03:59:33.513Z,96122.75
2024-02-29T04:02:01.541Z,96119.41
2024-02-29T04:04:31.119Z,96121.97
2024-02-29T04:06:58.722Z,96116.56
2024-02-29T04:09:26.509Z,96111.25
2024-02-29T04:11:54.485Z,96112.69
2024-02-29T04:14:21.987Z,96101.00
2024-02-29T04:16:49.778Z,96107.56
2024-02-29T04:19:17.943Z,96099.38
2024-02-29T04:21:47.456Z,96093.16
2024-02-29T04:24:15.064Z,96105.66
2024-02-29T04:26:42.546Z,96096.97
2024-02-29T04:29:10.067Z,96099.38
2024-02-29T04:31:38.155Z,96095.88
2024-02-29T04:34:06.040Z,96093.16
2024-02-29T04:36:33.753Z,96084.66
2024-02-29T04:39:01.275Z,96090.09
2024-02-29T04:41:28.798Z,96095.25
2024-02-29T04:43:56.953Z,96092.84
2024-02-29T04:46:24.494Z,96091.69
2024-02-29T04:48:52.094Z,96091.38
2024-02-29T04:51:19.621Z,96089.47
2024-02-29T04:53:47.164Z,96089.47
2024-02-29T04:56:14.901Z,96084.03
2024-02-29T04:58:42.466Z,96087.19
2024-02-29T05:01:10.248Z,96076.47
2024-02-29T05:03:37.796Z,96077.59
2024-02-29T05:06:05.849Z,96072.81
2024-02-29T05:08:33.393Z,96073.91
2024-02-29T05:11:00.971Z,96079.69
2024-02-29T05:13:28.551Z,96078.56
2024-02-29T05:15:56.177Z,96079.69
2024-02-29T05:18:28.022Z,96085.44
2024-02-29T05:20:55.774Z,96088.16
2024-02-29T05:23:23.423Z,96077.75
2024-02-29T05:25:51.201Z,96079.22
2024-02-29T05:28:18.788Z,96070.41
2024-02-29T05:30:46.405Z,96076.94
2024-02-29T05:33:13.930Z,96069.91
2024-02-29T05:35:41.518Z,96063.66
2024-02-29T05:38:09.113Z,96062.06
2024-02-29T05:40:36.736Z,96061.25
2024-02-29T05:43:05.029Z,96076.00
2024-02-29T05:45:32.847Z,96062.72
2024-02-29T05:48:00.445Z,96064.31
2024-02-29T05:50:29.882Z,96058.06
2024-02-29T05:52:59.929Z,96058.22
2024-02-29T05:55:27.583Z,96061.09
2024-02-29T05:57:55.325Z,96061.41
2024-02-29T06:00:24.495Z,96054.50
2024-02-29T06:02:53.199Z,96052.59
2024-02-29T06:05:21.378Z,96061.44
2024-02-29T06:07:48.967Z,96066.69
2024-02-29T06:10:16.645Z,96069.41
2024-02-29T06:12:44.358Z,96066.53
2024-02-29T06:15:12.383Z,96062.50
2024-02-29T06:17:40.277Z,96056.84
2024-02-29T06:20:13.372Z,96051.25
2024-02-29T06:22:41.386Z,96047.03
2024-02-29T06:25:12.008Z,96049.59
2024-02-29T06:27:40.696Z,96043.34
2024-02-29T06:30:09.768Z,96042.19
2024-02-29T06:32:37.588Z,96045.41
2024-02-29T06:35:05.859Z,96055.00
2024-02-29T06:37:33.346Z,96044.25
2024-02-29T06:40:01.286Z,96044.22
2024-02-29T06:42:28.971Z,96041.31
2024-02-29T06:44:56.792Z,96044.59
2024-02-29T06:47:24.326Z,96040.94
2024-02-29T06:49:51.997Z,96040.75
2024-02-29T06:52:19.670Z,96033.50
2024-02-29T06:54:47.649Z,96037.31
2024-02-29T06:57:16.158Z,96039.53
2024-02-29T06:59:43.729Z,96040.00
2024-02-29T07:02:11.633Z,96044.25
2024-02-29T07:04:39.344Z,96041.78
2024-02-29T07:07:09.327Z,96034.69
2024-02-29T07:09:37.070Z,96033.50
2024-02-29T07:12:04.952Z,96034.91
2024-02-29T07:14:32.800Z,96032.91
2024-02-29T07:17:00.477Z,96029.97
2024-02-29T07:19:28.076Z,96023.19
2024-02-29T07:21:55.808Z,96019.97
2024-02-29T07:24:23.426Z,96019.91
2024-02-29T07:26:51.211Z,96016.94
2024-02-29T07:29:18.959Z,96021.63
2024-02-29T07:31:46.691Z,96022.34
2024-02-29T07:34:17.370Z,96016.91
2024-02-29T07:36:45.276Z,96015.22
2024-02-29T07:39:15.982Z,96009.28
2024-02-29T07:41:43.531Z,96012.69
2024-02-29T07:44:11.053Z,96013.69
2024-02-29T07:46:38.662Z,96007.28
2024-02-29T07:49:06.177Z,96007.56
2024-02-29T07:51:33.796Z,96011.56
2024-02-29T07:54:01.467Z,96006.25
2024-02-29T07:56:30.388Z,95996.50
2024-02-29T07:58:58.174Z,96001.13
2024-02-29T08:01:25.941Z,96002.59
2024-02-29T08:03:53.677Z,95996.16
2024-02-29T08:06:21.914Z,96000.06
2024-02-29T08:08:49.451Z,95999.84
2024-02-29T08:11:17.133Z,95989.63
2024-02-29T08:13:45.578Z,95979.41
2024-02-29T08:16:12.998Z,95985.91
2024-02-29T08:18:40.675Z,95984.88
2024-02-29T08:21:08.367Z,95972.53
2024-02-29T08:23:36.691Z,95982.38
2024-02-29T08:26:11.190Z,95978.59
2024-02-29T08:28:39.211Z,95975.97
2024-02-29T08:31:09.789Z,95975.75
2024-02-29T08:33:37.544Z,95970.50
2024-02-29T08:36:05.671Z,95966.06
2024-02-29T08:38:35.341Z,95965.25
2024-02-29T08:41:03.429Z,95961.25
2024-02-29T08:43:31.519Z,95952.25
2024-02-29T08:45:59.126Z,95959.09
2024-02-29T08:48:27.050Z,95958.28
2024-02-29T08:50:54.574Z,95964.13
2024-02-29T08:53:23.669Z,95959.69
2024-02-29T08:55:51.451Z,95960.25
2024-02-29T08:58:19.236Z,95951.47
2024-02-29T09:00:46.996Z,95951.66
2024-02-29T09:03:14.843Z,95944.84
2024-02-29T09:05:42.548Z,95957.97
2024-02-29T09:08:10.151Z,95943.63
2024-02-29T09:10:37.786Z,95944.84
2024-02-29T09:13:19.919Z,95947.44
2024-02-29T09:15:53.716Z,95944.06
2024-02-29T09:18:21.540Z,95943.38
2024-02-29T09:20:49.526Z,95932.44
2024-02-29T09:23:17.260Z,95933.09
2024-02-29T09:25:44.881Z,95932.41
2024-02-29T09:28:12.753Z,95922.03
2024-02-29T09:30:40.339Z,95932.38
2024-02-29T09:33:07.941Z,95923.72
2024-02-29T09:35:35.610Z,95926.34
2024-02-29T09:38:03.128Z,95916.34
2024-02-29T09:40:38.542Z,95917.59
2024-02-29T09:43:13.932Z,95913.34
2024-02-29T09:45:43.797Z,95911.06
2024-02-29T09:48:12.682Z,95911.59
2024-02-29T09:50:40.164Z,95904.53
2024-02-29T09:53:10.874Z,95901.16
2024-02-29T09:55:38.832Z,95907.44
2024-02-29T09:58:08.380Z,95897.00
2024-02-29T10:00:36.339Z,95888.69
2024-02-29T10:03:05.502Z,95890.22
2024-02-29T10:05:33.090Z,95879.63
2024-02-29T10:08:03.303Z,95890.50
2024-02-29T10:10:36.646Z,95888.47
2024-02-29T10:13:06.086Z,95881.41
2024-02-29T10:15:34.660Z,95880.91
2024-02-29T10:18:05.219Z,95883.13
2024-02-29T10:20:33.611Z,95879.56
2024-02-29T10:23:01.424Z,95878.44
2024-02-29T10:25:29.207Z,95871.16
2024-02-29T10:28:06.401Z,95860.06
2024-02-29T10:30:34.237Z,95860.38
2024-02-29T10:33:01.750Z,95854.97
2024-02-29T10:35:29.286Z,95855.06
2024-02-29T10:37:57.224Z,95853.13
2024-02-29T10:40:26.034Z,95852.22
2024-02-29T10:42:57.457Z,95834.28
2024-02-29T10:45:27.633Z,95839.72
2024-02-29T10:48:04.369Z,95837.69
2024-02-29T10:50:37.209Z,95834.81
2024-02-29T10:53:34.677Z,95818.78
2024-02-29T10:56:09.399Z,95825.56
2024-02-29T10:58:44.164Z,95820.69
2024-02-29T11:01:13.838Z,95820.78
2024-02-29T11:03:42.457Z,95811.91
2024-02-29T11:06:10.241Z,95813.19
2024-02-29T11:08:38.151Z,95801.50
2024-02-29T11:11:13.179Z,95804.00
2024-02-29T11:13:41.068Z,95795.59
2024-02-29T11:16:14.193Z,95791.25
2024-02-29T11:18:42.929Z,95788.97
2024-02-29T11:21:10.631Z,95786.22
2024-02-29T11:23:40.663Z,95779.69
2024-02-29T11:26:10.343Z,95770.22
2024-02-29T11:28:39.802Z,95771.72
2024-02-29T11:31:17.699Z,95770.56
2024-02-29T11:33:49.629Z,95768.28
2024-02-29T11:36:17.659Z,95759.63
2024-02-29T11:38:45.955Z,95763.06
2024-02-29T11:41:20.749Z,95748.06
2024-02-29T11:43:50.440Z,95752.22
2024-02-29T11:46:18.832Z,95745.03
2024-02-29T11:48:46.606Z,95750.00
2024-02-29T11:51:14.295Z,95741.66
2024-02-29T11:53:42.955Z,95744.50
2024-02-29T11:56:15.526Z,95733.88
2024-02-29T11:58:45.274Z,95731.69
2024-02-29T12:01:14.236Z,95728.50
2024-02-29T12:03:41.917Z,95722.81
2024-02-29T12:06:09.592Z,95719.66
2024-02-29T12:08:40.240Z,95713.91
2024-02-29T12:11:08.802Z,95715.66
2024-02-29T12:13:36.599Z,95705.31
2024-02-29T12:16:05.986Z,95712.38
2024-02-29T12:18:36.079Z,95702.66
2024-02-29T12:21:05.141Z,95703.28
2024-02-29T12:23:33.083Z,95694.25
2024-02-29T12:26:11.540Z,95689.69
2024-02-29T12:28:40.095Z,95681.13
2024-02-29T12:31:08.212Z,95679.94
2024-02-29T12:33:45.595Z,95681.03
2024-02-29T12:36:17.410Z,95664.19
2024-02-29T12:38:45.631Z,95671.22
2024-02-29T12:41:14.518Z,95657.09
2024-02-29T12:43:51.394Z,95656.72
2024-02-29T12:46:20.407Z,95659.28
2024-02-29T12:48:48.021Z,95644.75
2024-02-29T12:51:15.986Z,95650.03
2024-02-29T12:53:43.576Z,95638.50
2024-02-29T12:56:11.355Z,95631.94
2024-02-29T12:58:39.641Z,95636.88
2024-02-29T13:01:08.454Z,95624.88
2024-02-29T13:03:36.513Z,95639.66
2024-02-29T13:06:04.692Z,95618.53
2024-02-29T13:08:34.071Z,95620.66
2024-02-29T13:11:01.641Z,95614.59
2024-02-29T13:13:29.282Z,95616.91
2024-02-29T13:15:57.229Z,95617.25
2024-02-29T13:18:24.876Z,95615.41
2024-02-29T13:20:55.379Z,95603.72
2024-02-29T13:23:23.205Z,95595.94
2024-02-29T13:25:51.717Z,95598.44
2024-02-29T13:28:20.420Z,95582.69
2024-02-29T13:30:49.919Z,95577.59
2024-02-29T13:33:17.898Z,95573.78
2024-02-29T13:35:45.709Z,95566.88
2024-02-29T13:38:13.353Z,95565.16
2024-02-29T13:40:41.185Z,95565.03
2024-02-29T13:43:08.942Z,95556.44
2024-02-29T13:45:39.592Z,95551.69
2024-02-29T13:48:07.843Z,95549.13
2024-02-29T13:50:35.442Z,95550.66
2024-02-29T13:53:03.037Z,95549.53
2024-02-29T13:55:30.778Z,95543.75
2024-02-29T13:57:58.924Z,95543.16
2024-02-29T14:00:30.079Z,95535.28
2024-02-29T14:02:58.338Z,95532.31
2024-02-29T14:05:25.990Z,95535.16
2024-02-29T14:07:53.695Z,95527.13
2024-02-29T14:10:21.207Z,95527.41
2024-02-29T14:12:49.378Z,95515.19
2024-02-29T14:15:20.513Z,95515.97
2024-02-29T14:17:49.097Z,95510.06
2024-02-29T14:20:16.953Z,95505.72
2024-02-29T14:22:44.678Z,95502.13
2024-02-29T14:25:12.962Z,95505.03
2024-02-29T14:27:41.241Z,95493.06
2024-02-29T14:30:10.643Z,95487.81
2024-02-29T14:32:39.321Z,95481.56
2024-02-29T14:35:07.908Z,95487.81
2024-02-29T14:37:36.017Z,95476.28
2024-02-29T14:40:05.950Z,95473.25
2024-02-29T14:42:34.585Z,95472.59
2024-02-29T14:45:02.242Z,95472.25
2024-02-29T14:47:30.767Z,95463.97
2024-02-29T14:49:58.285Z,95458.03
2024-02-29T14:52:28.387Z,95462.91
2024-02-29T14:54:56.816Z,95454.34
2024-02-29T14:57:25.494Z,95451.44
2024-02-29T14:59:53.374Z,95444.88
2024-02-29T15:02:21.314Z,95441.00
2024-02-29T15:04:49.096Z,95434.56
2024-02-29T15:07:17.185Z,95440.06
2024-02-29T15:09:44.986Z,95438.19
2024-02-29T15:12:12.632Z,95434.94
2024-02-29T15:14:40.278Z,95433.31
2024-02-29T15:17:08.429Z,95430.56
2024-02-29T15:19:36.136Z,95426.25
2024-02-29T15:22:03.932Z,95421.13
2024-02-29T15:24:31.420Z,95424.25
2024-02-29T15:27:03.165Z,95419.56
2024-02-29T15:29:30.787Z,95412.44
2024-02-29T15:31:58.350Z,95412.44
2024-02-29T15:34:26.093Z,95406.97
2024-02-29T15:36:55.145Z,95399.41
2024-02-29T15:39:22.980Z,95402.91
2024-02-29T15:41:50.807Z,95397.53
2024-02-29T15:44:18.493Z,95392.09
2024-02-29T15:46:47.508Z,95394.06
2024-02-29T15:49:15.435Z,95392.22
2024-02-29T15:51:43.221Z,95383.47
2024-02-29T15:54:10.766Z,95381.69
2024-02-29T15:56:38.415Z,95385.53
2024-02-29T15:59:06.166Z,95380.56
2024-02-29T16:01:33.783Z,95381.59
2024-02-29T16:04:01.395Z,95379.72
2024-02-29T16:06:28.989Z,95373.28
2024-02-29T16:08:56.542Z,95371.56
2024-02-29T16:11:24.256Z,95365.59
2024-02-29T16:13:54.990Z,95374.88
2024-02-29T16:16:23.405Z,95359.50
2024-02-29T16:18:51.064Z,95357.38
2024-02-29T16:21:18.643Z,95346.66
2024-02-29T16:23:46.184Z,95351.19
2024-02-29T16:26:13.836Z,95350.22
2024-02-29T16:28:41.408Z,95343.97
2024-02-29T16:31:09.545Z,95342.47
2024-02-29T16:33:37.304Z,95340.09
2024-02-29T16:36:08.073Z,95335.13
2024-02-29T16:38:38.552Z,95332.47
2024-02-29T16:41:06.925Z,95323.03
2024-02-29T16:43:34.770Z,95337.66
2024-02-29T16:46:02.581Z,95333.44
2024-02-29T16:48:30.489Z,95334.81
2024-02-29T16:51:00.688Z,95329.75
2024-02-29T16:53:28.735Z,95319.63
2024-02-29T16:55:57.607Z,95314.78
2024-02-29T16:58:26.758Z,95318.88
2024-02-29T17:00:57.120Z,95317.91
2024-02-29T17:03:25.019Z,95322.88
2024-02-29T17:05:53.270Z,95313.97
2024-02-29T17:08:22.408Z,95307.28
2024-02-29T17:10:50.510Z,95299.56
2024-02-29T17:13:18.478Z,95307.69
2024-02-29T17:15:46.911Z,95304.13
2024-02-29T17:18:17.581Z,95307.34
2024-02-29T17:20:54.276Z,95292.09
2024-02-29T17:23:25.212Z,95289.56
2024-02-29T17:25:54.272Z,95290.25
2024-02-29T17:28:22.305Z,95276.41
2024-02-29T17:30:50.490Z,95276.16
2024-02-29T17:33:18.372Z,95285.63
2024-02-29T17:35:52.714Z,95282.38
2024-02-29T17:38:20.399Z,95278.72
2024-02-29T17:40:48.574Z,95267.00
2024-02-29T17:43:18.552Z,95267.25
2024-02-29T17:45:47.712Z,95266.19
2024-02-29T17:48:16.059Z,95252.88
2024-02-29T17:50:45.459Z,95258.13
2024-02-29T17:53:14.282Z,95246.97
2024-02-29T17:55:51.098Z,95250.94
2024-02-29T17:58:22.236Z,95247.97
2024-02-29T18:00:52.558Z,95249.91
2024-02-29T18:03:21.623Z,95244.63
2024-02-29T18:05:51.387Z,95240.56
2024-02-29T18:08:26.913Z,95237.63
2024-02-29T18:10:57.463Z,95240.25
2024-02-29T18:13:27.139Z,95236.31
2024-02-29T18:15:56.673Z,95229.31
2024-02-29T18:18:25.542Z,95238.41
2024-02-29T18:20:54.094Z,95237.47
2024-02-29T18:23:24.675Z,95237.47
2024-02-29T18:25:57.210Z,95232.56
2024-02-29T18:28:31.263Z,95235.66
2024-02-29T18:31:01.629Z,95234.69
2024-02-29T18:33:31.452Z,95220.78
2024-02-29T18:36:01.795Z,95221.22
2024-02-29T18:38:30.560Z,95221.25
2024-02-29T18:41:02.756Z,95214.91
2024-02-29T18:43:33.178Z,95211.94
2024-02-29T18:46:06.345Z,95204.00
2024-02-29T18:48:37.609Z,95202.84
2024-02-29T18:51:09.143Z,95203.59
2024-02-29T18:53:37.921Z,95209.50
2024-02-29T18:56:17.648Z,95200.31
2024-02-29T18:58:59.965Z,95215.28
2024-02-29T19:01:33.522Z,95206.91
2024-02-29T19:04:16.710Z,95196.22
2024-02-29T19:06:57.996Z,95212.47
2024-02-29T19:09:32.663Z,95200.59
2024-02-29T19:12:05.470Z,95201.78
2024-02-29T19:14:37.309Z,95195.25
2024-02-29T19:17:09.103Z,95197.38
2024-02-29T19:19:39.021Z,95200.53
2024-02-29T19:22:08.069Z,95194.25
2024-02-29T19:24:52.212Z,95200.19
2024-02-29T19:30:23.041Z,95202.91
2024-02-29T19:32:56.073Z,95186.09
2024-02-29T19:35:26.761Z,95187.41
2024-02-29T19:38:02.276Z,95195.00
2024-02-29T19:40:40.272Z,95196.53
2024-02-29T19:43:10.464Z,95189.69
2024-02-29T19:45:40.844Z,95193.28
2024-02-29T19:48:10.716Z,95179.75
2024-02-29T19:50:40.935Z,95176.06
2024-02-29T19:53:31.483Z,95169.50
2024-02-29T19:58:58.929Z,95168.41
2024-02-29T20:01:30.976Z,95172.72
2024-02-29T20:04:01.939Z,95164.22
2024-02-29T20:06:33.399Z,95165.75
2024-02-29T20:09:10.423Z,95153.88
2024-02-29T20:11:39.684Z,95153.56
2024-02-29T20:14:12.216Z,95162.75
2024-02-29T20:16:43.562Z,95154.13
2024-02-29T20:19:15.174Z,95161.75
2024-02-29T20:21:46.422Z,95157.66
2024-02-29T20:24:16.273Z,95164.81
2024-02-29T20:26:46.915Z,95158.09
2024-02-29T20:29:17.138Z,95151.50
2024-02-29T20:31:54.005Z,95152.19
2024-02-29T20:34:28.014Z,95137.44
2024-02-29T20:36:56.815Z,95152.72
2024-02-29T20:39:27.395Z,95141.84
2024-02-29T20:41:59.164Z,95138.31
2024-02-29T20:44:29.475Z,95137.94
2024-02-29T20:47:01.153Z,95128.69
2024-02-29T20:49:31.889Z,95130.13
2024-02-29T20:52:06.138Z,95125.25
2024-02-29T20:55:04.564Z,95121.09
2024-02-29T20:57:51.570Z,95130.97
2024-02-29T21:00:40.869Z,95124.97
2024-02-29T21:03:13.101Z,95115.81
2024-02-29T21:05:46.415Z,95125.44
2024-02-29T21:08:17.767Z,95111.47
2024-02-29T21:10:49.909Z,95119.28
2024-02-29T21:13:22.639Z,95100.72
2024-02-29T21:15:54.879Z,95121.28
2024-02-29T21:18:24.724Z,95125.09
2024-02-29T21:21:14.615Z,95119.22
2024-02-29T21:23:46.912Z,95119.97
2024-02-29T21:26:21.951Z,95115.19
2024-02-29T21:28:51.572Z,95109.53
2024-02-29T21:31:21.167Z,95101.13
2024-02-29T21:33:54.860Z,95099.53
2024-02-29T21:36:34.285Z,95105.25
2024-02-29T21:39:04.682Z,95106.50
2024-02-29T21:41:36.986Z,95083.03
2024-02-29T21:44:12.521Z,95077.34
2024-02-29T21:46:42.991Z,95076.66
2024-02-29T21:49:11.881Z,95071.81
2024-02-29T21:51:41.708Z,95066.16
2024-02-29T21:54:17.825Z,95071.03
2024-02-29T21:56:52.599Z,95064.00
2024-02-29T21:59:32.604Z,95055.91
2024-02-29T22:02:03.447Z,95052.28
2024-02-29T22:04:36.595Z,95062.69
2024-02-29T22:07:09.843Z,95050.88
2024-02-29T22:12:21.160Z,95063.66
2024-02-29T22:14:49.036Z,95062.91
2024-02-29T22:17:18.597Z,95062.91
2024-02-29T22:19:47.245Z,95059.19
2024-02-29T22:22:15.455Z,95069.03
2024-02-29T22:24:44.012Z,95060.00
2024-02-29T22:27:13.871Z,95064.28
2024-02-29T22:29:43.400Z,95062.25
2024-02-29T22:32:12.179Z,95061.53
2024-02-29T22:34:41.634Z,95053.03
2024-02-29T22:37:10.820Z,95052.13
2024-02-29T22:39:39.798Z,95051.75
2024-02-29T22:42:09.000Z,95057.53
2024-02-29T22:44:37.893Z,95057.56
2024-02-29T22:47:07.221Z,95039.31
2024-02-29T22:49:35.702Z,95040.19
2024-02-29T22:52:04.929Z,95037.06
2024-02-29T22:54:34.271Z,95041.53
2024-02-29T22:57:03.795Z,95043.88
2024-02-29T22:59:32.183Z,95039.38
2024-02-29T23:02:02.142Z,95043.53
2024-02-29T23:04:31.110Z,95030.28
2024-02-29T23:07:00.093Z,95038.22
2024-02-29T23:09:29.130Z,95034.41
2024-02-29T23:11:58.441Z,95029.50
2024-02-29T23:14:32.027Z,95023.88
2024-02-29T23:17:00.732Z,95017.03
2024-02-29T23:19:29.373Z,95023.97
2024-02-29T23:21:58.133Z,95018.78
2024-02-29T23:24:25.948Z,95006.75
2024-02-29T23:26:55.582Z,95011.81
2024-02-29T23:29:24.552Z,94998.59
2024-02-29T23:31:52.255Z,95000.50
2024-02-29T23:34:21.855Z,95000.88
2024-02-29T23:36:52.240Z,95003.13
2024-02-29T23:39:23.393Z,94997.22
2024-02-29T23:41:52.206Z,95001.66
2024-02-29T23:44:20.856Z,95003.38
2024-02-29T23:46:49.301Z,94996.00
2024-02-29T23:49:17.757Z,94989.78
2024-02-29T23:51:46.965Z,94990.91
2024-02-29T23:54:15.745Z,94994.38
2024-02-29T23:56:44.163Z,95004.25
2024-02-29T23:59:12.661Z,95013.97
